Tiempo atmosférico en la estación meteorológica de Pollença, Illes Balears (45 m.)



Fecha
DESCASC
Temp. máxima en grados centígrados (hora)
DESCASC
Temp. mínima en grados centígrados (hora)
DESCASC
Temp. media en grados centígrados
DESCASC
Racha de viento máxima en m/sg (hora)
DESCASC
Velocidad máxima media en intervalos de 10 minutos(hora)
DESCASC
Precipitaciones diarias en mm
DESCASC
Precipitaciones de 00:00 a 06:00 en mm
DESCASC
Precipitaciones de 06:00 a 12:00 en mm
DESCASC
Precipitaciones de 12:00 a 18:00 en mm
DESCASC
Precipitaciones de 18:00 a 24:00 en mm
DESCASC
21-02-2021 19.2 (12:50) 10.4 (07:40) 14.8 10.28 (12:30) 4.44 (00:30) 0 0 0 0 0
20-02-2021 20.4 (13:20) 6.2 (06:40) 13.3 8.89 (23:40) 3.89 (23:50) 0 0 0 0 0
19-02-2021 18.4 (15:10) 4.7 (05:30) 11.5 4.44 (15:40) 2.22 (15:40) 0 0 0 0 0
18-02-2021 21 (14:20) 5.3 (00:00) 13.2 6.94 (11:40) 3.89 (11:40) 0 0 0 0 0
17-02-2021 18 (14:40) 4.8 (00:00) 11.4 4.17 (15:00) 2.5 (12:50) 0 0 0 0 0
16-02-2021 18.6 (14:40) 3.7 (00:00) 11.2 6.67 (11:20) 3.61 (12:20) 0.2 0 0.2 0 0
15-02-2021 13 (13:30) 5.1 (00:00) 9 5.83 (17:30) 2.22 (17:10) 0 0 0 0 0
14-02-2021 11.8 (12:40) 6 (00:00) 8.9 7.22 (14:20) 3.61 (14:20) 0 0 0 0 0
13-02-2021 15.5 (15:50) 10.1 (00:00) 12.8 4.72 (11:40) 1.94 (01:30) 0 0 0 0 0
12-02-2021 17.7 (13:10) 6.9 (00:00) 12.3 14.17 (17:20) 6.39 (17:20) 5.4 0 0 0 5.4
11-02-2021 23.7 (15:10) 4.7 (00:00) 14.2 7.78 (13:10) 3.33 (13:10) 0 0 0 0 0
10-02-2021 18.1 (00:00) 11.1 (00:00) 14.6 18.33 (08:50) 9.72 (10:10) 0.6 0 0.6 0 0
09-02-2021 18.2 (23:40) 11.8 (00:00) 15 14.17 (17:20) 6.11 (14:10) 0 0 0 0 0
08-02-2021 17.5 (13:50) 4.8 (00:00) 11.2 14.72 (11:00) 6.39 (11:00) 0 0 0 0 0
07-02-2021 15.5 (15:40) 5.8 (00:00) 10.7 11.67 (09:10) 5 (11:00) 0 0 0 0 0
06-02-2021 22.4 (03:40) 9.8 (00:00) 16.1 13.06 (05:00) 5.83 (05:00) 0 0 0 0 0
05-02-2021 26.1 (15:00) 7.9 (00:00) 17 7.78 (14:00) 4.17 (14:00) 0 0 0 0 0
04-02-2021 18.8 (13:50) 8.2 (00:00) 13.5 3.89 (14:10) 2.78 (14:10) 0 0 0 0 0
03-02-2021 20.1 (13:50) 6.3 (00:00) 13.2 3.61 (15:10) 1.67 (15:00) 0 0 0 0 0
02-02-2021 22.4 (13:40) 9.1 (00:00) 15.8 13.06 (01:50) 6.67 (01:10) 0 0 0 0 0
01-02-2021 19.2 (02:40) 17.4 (00:00) 18.3 21.67 (08:30) 11.11 (10:10) 0 0 0 0 0
31-01-2021 18.9 (23:10) 13.6 (00:00) 16.3 21.94 (12:10) 10 (11:10) 0 0 0 0 0
30-01-2021 19.7 (13:50) 8.3 (00:00) 14 16.67 (11:30) 8.06 (11:40) 0 0 0 0 0
29-01-2021 23.5 (13:30) 9 (00:00) 16.3 11.94 (09:10) 5 (09:10) 0 0 0 0 0
28-01-2021 23.8 (11:20) 8.5 (00:00) 16.1 10.28 (06:00) 4.44 (06:00) 0 0 0 0 0
27-01-2021 20.3 (14:10) 5.3 (00:00) 12.8 9.72 (13:20) 3.89 (13:00) 0 0 0 0 0
26-01-2021 14.5 (14:30) 5.4 (00:00) 10 5.56 (01:20) 2.78 (17:30) 0 0 0 0 0
25-01-2021 16.9 (13:20) 8.6 (00:00) 12.8 13.33 (17:40) 6.39 (17:40) 6.4 0 0.4 2.6 3.4

Gráficas

Temp. máximas Temp. mínimas Temp. medias Precipitaciones Rachas de viento máximas Velocidades máximas media en intervalos de 10 minutos

Datos horarios

Fecha y hora oficial Temperatura (ºC) Velocidad del viento (km/h) Dirección del viento Racha (km/h) Dirección de racha Precipitación (mm) Presión (hPa) Tendencia (hPa) Humedad (%)
2021-02-23 23:00:00 14.4 5 Sur 15 Sur 0 -- -- 92
2021-02-23 22:00:00 14.2 0 Calma 4 Sur 0 -- -- 93
2021-02-23 21:00:00 14.3 0 Calma 4 Nordeste 0 -- -- 92
2021-02-23 20:00:00 14.6 3 Norte 5 Este 0 -- -- 90
2021-02-23 19:00:00 14.9 4 Este 8 Este 0 -- -- 84
2021-02-23 18:00:00 15.3 4 Nordeste 13 Este 0 -- -- 83
2021-02-23 17:00:00 16.1 3 Este 12 Nordeste 0 -- -- 81
2021-02-23 16:00:00 15.4 6 Este 18 Este 0 -- -- 88
2021-02-23 15:00:00 15.4 5 Nordeste 15 Norte 0 -- -- 89
2021-02-23 14:00:00 15.8 11 Norte 17 Norte 0 -- -- 87
2021-02-23 13:00:00 16.1 5 Norte 10 Norte 0 -- -- 82
2021-02-23 12:00:00 15.8 5 Norte 12 Norte 0 -- -- 80
2021-02-23 11:00:00 15.1 5 Norte 8 Norte 0 -- -- 83
2021-02-23 10:00:00 14.5 2 Oeste 4 Oeste 0 -- -- 83
2021-02-23 09:00:00 12.5 2 Norte 9 Sudoeste 0 -- -- 90
2021-02-23 08:00:00 10.7 2 Norte 9 Oeste 0 -- -- 94
2021-02-23 07:00:00 10.6 0 Calma 4 Oeste 0 -- -- 94
2021-02-23 06:00:00 9.8 0 Calma -- -- 0 -- -- 94
2021-02-23 05:00:00 9.9 0 Calma 3 Nordeste 0 -- -- 93
2021-02-23 04:00:00 10.1 0 Calma 3 Norte 0 -- -- 94
2021-02-23 03:00:00 10.3 0 Calma 3 Norte 0 -- -- 94
2021-02-23 02:00:00 9.9 0 Calma 3 Norte 0 -- -- 96
2021-02-23 01:00:00 9.4 0 Calma 3 Norte 0 -- -- 96
2021-02-23 00:00:00 10.1 0 Calma 4 Norte 0 -- -- 95
2021-02-22 23:00:00 10.1 0 Calma 7 Sur 0 -- -- 94
2021-02-22 22:00:00 11.2 0 Calma 7 Sudoeste 0 -- -- 94
2021-02-22 21:00:00 11.5 2 Sudoeste 4 Sur 0 -- -- 93
2021-02-22 20:00:00 11.9 0 Calma 5 Sur 0 -- -- 91
2021-02-22 19:00:00 12.5 0 Calma 10 Sudeste 0 -- -- 88
2021-02-22 18:00:00 14.8 3 Este 17 Este 0 -- -- 77
2021-02-22 17:00:00 16.3 5 Sudoeste 20 Oeste 0 -- -- 71
2021-02-22 16:00:00 16.8 8 Sudoeste 21 Sudoeste 0 -- -- 70
2021-02-22 15:00:00 16 9 Sudoeste 22 Sudeste 0 -- -- 74
2021-02-22 14:00:00 15.9 8 Este 26 Sudeste 0 -- -- 74
2021-02-22 13:00:00 15.5 6 Sudoeste 22 Oeste 0 -- -- 77
2021-02-22 12:00:00 14.6 4 Sudoeste 21 Sur 0 -- -- 78
2021-02-22 11:00:00 15.4 8 Sudoeste 30 Sur 0 -- -- 71
2021-02-22 10:00:00 14.9 7 Sudoeste 36 Sur 0 -- -- 72
2021-02-22 09:00:00 14.7 7 Sudoeste 22 Este 0 -- -- 73
2021-02-22 08:00:00 14.3 8 Sudeste 17 Sudeste 0 -- -- 78
2021-02-22 07:00:00 14.6 8 Norte 21 Sur 0 -- -- 72
2021-02-22 06:00:00 15 9 Sudoeste 24 Sur 0 -- -- 63
2021-02-22 05:00:00 15.2 8 Sur 23 Sur 0 -- -- 73
2021-02-22 04:00:00 15.5 6 Sudoeste 21 Sudoeste 0 -- -- 76
2021-02-22 03:00:00 15.9 7 Sur 24 Este 0 -- -- 78
2021-02-22 02:00:00 16.6 5 Sur 21 Sudoeste 0 -- -- 74
2021-02-22 01:00:00 17.7 9 Sudoeste 30 Sudoeste 0 -- -- 63
2021-02-22 00:00:00 18.1 14 Sudoeste 34 Sudoeste 0 -- -- 61
2021-02-21 23:00:00 17.5 5 Oeste 24 Oeste 0 -- -- 67
2021-02-21 22:00:00 15.2 3 Oeste 10 Sudoeste 0 -- -- 80
2021-02-21 21:00:00 14.2 0 Calma 9 Sudoeste 0 -- -- 88
2021-02-21 20:00:00 14.6 3 Norte 7 Nordeste 0 -- -- 87
2021-02-21 19:00:00 15.2 3 Este 12 Este 0 -- -- 81
2021-02-21 18:00:00 16.8 5 Sur 16 Sur 0 -- -- 71
2021-02-21 17:00:00 18 8 Sudeste 20 Este 0 -- -- 65
2021-02-21 16:00:00 18.7 10 Sudeste 25 Sudeste 0 -- -- 64
2021-02-21 15:00:00 18.1 10 Sudeste 24 Este 0 -- -- 71
2021-02-21 14:00:00 18.6 9 Sudeste 28 Sudeste 0 -- -- 68
2021-02-21 13:00:00 18.2 14 Sudeste 37 Sur 0 -- -- 70
2021-02-21 12:00:00 17.7 11 Sudeste 28 Sudeste 0 -- -- 73
2021-02-21 11:00:00 16.9 10 Sudeste 23 Sur 0 -- -- 74
2021-02-21 10:00:00 16.9 7 Sudeste 24 Sudeste 0 -- -- 74
2021-02-21 09:00:00 14.9 3 Sudoeste 11 Sudoeste 0 -- -- 77
2021-02-21 08:00:00 11.7 2 Sur 16 Oeste 0 -- -- 87
2021-02-21 07:00:00 12.9 3 Este 12 Oeste 0 -- -- 78
2021-02-21 06:00:00 13.6 4 Sudeste 23 Sudeste 0 -- -- 75
2021-02-21 05:00:00 14.4 12 Sur 35 Sudeste 0 -- -- 68
2021-02-21 04:00:00 14.1 7 Sudeste 31 Sudeste 0 -- -- 68
2021-02-21 03:00:00 14 5 Sudeste 20 Oeste 0 -- -- 72
2021-02-21 02:00:00 11.8 3 Norte 7 Noroeste 0 -- -- 79
2021-02-21 01:00:00 12.8 3 Nordeste 29 Sudoeste 0 -- -- 73
2021-02-21 00:00:00 13.8 13 Sudoeste 32 Oeste 0 -- -- 69
2021-02-20 23:00:00 10.2 3 Este 9 Este 0 -- -- 78
2021-02-20 22:00:00 11.3 4 Sudeste 13 Este 0 -- -- 77
2021-02-20 21:00:00 10.8 2 Norte 12 Sur 0 -- -- 81
2021-02-20 20:00:00 13.4 4 Sur 17 Sur 0 -- -- 68
2021-02-20 19:00:00 14.9 6 Sudeste 16 Sudeste 0 -- -- 69
2021-02-20 18:00:00 16.4 6 Este 20 Este 0 -- -- 65
2021-02-20 17:00:00 18.1 5 Este 18 Este 0 -- -- 57
2021-02-20 16:00:00 18.7 7 Este 18 Sudeste 0 -- -- 57
2021-02-20 15:00:00 20 9 Este 21 Este 0 -- -- 55
2021-02-20 14:00:00 19.9 6 Sudeste 21 Sur 0 -- -- 57
2021-02-20 13:00:00 19.7 8 Sur 18 Sur 0 -- -- 50
2021-02-20 12:00:00 18 8 Sur 18 Sur 0 -- -- 62
2021-02-20 11:00:00 16.3 8 Sudeste 22 Sudeste 0 -- -- 72
2021-02-20 10:00:00 14.2 5 Sur 18 Sudeste 0 -- -- 86
2021-02-20 09:00:00 10.7 0 Calma 2 Norte 0 -- -- 100
2021-02-20 08:00:00 6.6 0 Calma 4 Oeste 0 -- -- 100
2021-02-20 07:00:00 6.3 0 Calma 3 Noroeste 0 -- -- 100
2021-02-20 06:00:00 7.1 0 Calma 5 Noroeste 0 -- -- 99
2021-02-20 05:00:00 8.6 0 Calma 3 Norte 0 -- -- 99
2021-02-20 04:00:00 9.6 2 Norte 3 Norte 0 -- -- 99
2021-02-20 03:00:00 9.6 0 Calma 3 Oeste 0 -- -- 99
2021-02-20 02:00:00 9.3 0 Calma 3 Norte 0 -- -- 99
2021-02-20 01:00:00 8.9 0 Calma 2 Norte 0 -- -- 98
2021-02-20 00:00:00 7 0 Calma 2 Norte 0 -- -- 99
2021-02-19 23:00:00 7.3 0 Calma 3 Nordeste 0 -- -- 97
2021-02-19 22:00:00 8.4 0 Calma 4 Norte 0 -- -- 97
2021-02-19 21:00:00 8.9 0 Calma 2 Norte 0 -- -- 96
2021-02-19 20:00:00 10.1 0 Calma 3 Nordeste 0 -- -- 94
2021-02-19 19:00:00 11.1 0 Calma 4 Sur 0 -- -- 90
2021-02-19 18:00:00 13.4 2 Este 10 Este 0 -- -- 84
2021-02-19 17:00:00 14.6 4 Este 14 Este 0 -- -- 77
2021-02-19 16:00:00 15.9 5 Este 16 Este 0 -- -- 72
2021-02-19 15:00:00 17.9 6 Este 12 Sudeste 0 -- -- 66
2021-02-19 14:00:00 16.8 6 Este 14 Este 0 -- -- 70
2021-02-19 13:00:00 16.8 5 Este 14 Sudeste 0 -- -- 69
2021-02-19 12:00:00 17.2 4 Este 10 Este 0 -- -- 68
2021-02-19 11:00:00 17.2 4 Sur 10 Sudeste 0 -- -- 67
2021-02-19 10:00:00 16.5 4 Sur 8 Sudeste 0 -- -- 70
2021-02-19 09:00:00 9.5 0 Calma 4 Norte 0 -- -- 97
2021-02-19 08:00:00 5.5 0 Calma 0 Calma 0 -- -- 99
2021-02-19 07:00:00 5.2 0 Calma 3 Noroeste 0 -- -- 98
2021-02-19 06:00:00 4.7 0 Calma 2 Norte 0 -- -- 98
2021-02-19 05:00:00 5.3 0 Calma 3 Norte 0 -- -- 98
2021-02-19 04:00:00 5.5 2 Norte 5 Norte 0 -- -- 98
2021-02-19 03:00:00 5.9 0 Calma 3 Sur 0 -- -- 98
2021-02-19 02:00:00 6.5 0 Calma 5 Norte 0 -- -- 98
2021-02-19 01:00:00 7.7 2 Este 4 Norte 0 -- -- 97
2021-02-19 00:00:00 8.3 2 Noroeste 5 Noroeste 0 -- -- 97
2021-02-18 23:00:00 8.7 2 Norte 4 Noroeste 0 -- -- 97
2021-02-18 22:00:00 9.8 0 Calma 6 Nordeste 0 -- -- 96
2021-02-18 21:00:00 11.5 0 Calma 10 Nordeste 0 -- -- 93
2021-02-18 20:00:00 13.6 3 Nordeste 20 Sudeste 0 -- -- 87
2021-02-18 19:00:00 15 7 Sur 18 Sur 0 -- -- 82
2021-02-18 18:00:00 16 2 Norte 15 Norte 0 -- -- 75
2021-02-18 17:00:00 16.5 12 Norte 19 Norte 0 -- -- 71
2021-02-18 16:00:00 19 10 Nordeste 17 Este 0 -- -- 62
2021-02-18 15:00:00 19.3 10 Nordeste 18 Nordeste 0 -- -- 61
2021-02-18 14:00:00 20.1 9 Sudeste 23 Sudeste 0 -- -- 55
2021-02-18 13:00:00 19.1 8 Sudeste 21 Este 0 -- -- 55
2021-02-18 12:00:00 17.9 12 Sudeste 25 Sudeste 0 -- -- 64
2021-02-18 11:00:00 16.9 3 Sudoeste 18 Este 0 -- -- 65
2021-02-18 10:00:00 14.4 9 Sudeste 20 Sudeste 0 -- -- 76
2021-02-18 09:00:00 11.1 3 Oeste 8 Nordeste 0 -- -- 93
2021-02-18 08:00:00 9.8 3 Nordeste 8 Este 0 -- -- 97
2021-02-18 07:00:00 9.2 3 Norte 5 Norte 0 -- -- 99
2021-02-18 06:00:00 9 3 Norte 4 Norte 0 -- -- 98
2021-02-18 05:00:00 9 2 Norte 8 Oeste 0 -- -- 99
2021-02-18 04:00:00 8.9 3 Oeste 6 Oeste 0 -- -- 99
2021-02-18 03:00:00 8.2 0 Calma 4 Sudoeste 0 -- -- 99
2021-02-18 02:00:00 6.6 0 Calma 3 Noroeste 0 -- -- 99
2021-02-18 01:00:00 5.5 0 Calma 2 Nordeste 0 -- -- 98
2021-02-18 00:00:00 6.3 0 Calma 2 Nordeste 0 -- -- 98
2021-02-17 23:00:00 6.7 0 Calma 2 Norte 0 -- -- 97
2021-02-17 22:00:00 7.5 0 Calma 2 Norte 0 -- -- 96
2021-02-17 21:00:00 8.5 0 Calma 2 Nordeste 0 -- -- 96
2021-02-17 20:00:00 9.6 0 Calma 2 Norte 0 -- -- 94
2021-02-17 19:00:00 10.8 0 Calma 6 Este 0 -- -- 88
2021-02-17 18:00:00 13.2 3 Este 7 Este 0 -- -- 81
2021-02-17 17:00:00 14.5 3 Nordeste 11 Este 0 -- -- 73
2021-02-17 16:00:00 16 4 Nordeste 14 Sudeste 0 -- -- 69
2021-02-17 15:00:00 17.3 7 Este 15 Este 0 -- -- 63
2021-02-17 14:00:00 17.1 5 Norte 12 Norte 0 -- -- 64
2021-02-17 13:00:00 15.8 8 Nordeste 13 Nordeste 0 -- -- 68
2021-02-17 12:00:00 16 6 Este 13 Sudeste 0 -- -- 67
2021-02-17 11:00:00 15.2 7 Sudeste 15 Sudeste 0 -- -- 69
2021-02-17 10:00:00 11.8 0 Calma 5 Nordeste 0 -- -- 95
2021-02-17 09:00:00 7.5 0 Calma 2 Sur 0 -- -- 99
2021-02-17 08:00:00 5.7 0 Calma 5 Nordeste 0 -- -- 99
2021-02-17 07:00:00 5.3 0 Calma 0 Calma 0 -- -- 99
2021-02-17 06:00:00 5.2 0 Calma 3 Norte 0 -- -- 99
2021-02-17 05:00:00 5.4 0 Calma 3 Norte 0 -- -- 99
2021-02-17 04:00:00 4.8 0 Calma 3 Norte 0 -- -- 99
2021-02-17 03:00:00 5.1 0 Calma 4 Nordeste 0 -- -- 98
2021-02-17 02:00:00 5.1 2 Noroeste 3 Oeste 0 -- -- 98
2021-02-17 01:00:00 5.3 0 Calma 4 Oeste 0 -- -- 97
2021-02-17 00:00:00 5.5 0 Calma 2 Sudoeste 0 -- -- 96
2021-02-16 23:00:00 6 0 Calma 2 Noroeste 0 -- -- 96
2021-02-16 22:00:00 6.8 2 Nordeste 3 Nordeste 0 -- -- 94
2021-02-16 21:00:00 7.5 0 Calma 4 Norte 0 -- -- 91
2021-02-16 20:00:00 8.9 0 Calma 6 Norte 0 -- -- 87
2021-02-16 19:00:00 11.6 2 Norte 22 Sur 0 -- -- 74
2021-02-16 18:00:00 13.6 12 Sur 20 Sudoeste 0 -- -- 67
2021-02-16 17:00:00 15.3 8 Sudoeste 18 Sudoeste 0 -- -- 61
2021-02-16 16:00:00 16.4 10 Sudoeste 19 Oeste 0 -- -- 56
2021-02-16 15:00:00 18.6 8 Sudoeste 19 Sudoeste 0 -- -- 49
2021-02-16 14:00:00 18.2 8 Sudoeste 17 Sudoeste 0 -- -- 51
2021-02-16 13:00:00 16.6 12 Sudoeste 24 Sudoeste 0 -- -- 55
2021-02-16 12:00:00 15.5 11 Sudoeste 24 Sudoeste 0 -- -- 57
2021-02-16 11:00:00 15 12 Sudoeste 21 Sur 0.2 -- -- 57
2021-02-16 10:00:00 13.4 9 Sur 17 Sur 0 -- -- 63
2021-02-16 09:00:00 7.3 2 Nordeste 5 Nordeste 0 -- -- 91
2021-02-16 08:00:00 3.7 2 Norte 5 Nordeste 0 -- -- 96
2021-02-16 07:00:00 3.9 2 Nordeste 4 Nordeste 0 -- -- 95
2021-02-16 06:00:00 4.5 3 Norte 5 Nordeste 0 -- -- 94
2021-02-16 05:00:00 5.1 2 Norte 6 Sudoeste 0 -- -- 93
2021-02-16 04:00:00 5.6 2 Norte 5 Norte 0 -- -- 92
2021-02-16 03:00:00 6.6 2 Norte 4 Nordeste 0 -- -- 88
2021-02-16 02:00:00 7.9 0 Calma 6 Noroeste 0 -- -- 83
2021-02-16 01:00:00 8.7 0 Calma 7 Sur 0 -- -- 75
2021-02-16 00:00:00 10.2 3 Este 18 Sur 0 -- -- 65
2021-02-15 23:00:00 10.3 3 Nordeste 14 Sudeste 0 -- -- 64
2021-02-15 22:00:00 10.2 6 Este 17 Sudeste 0 -- -- 66
2021-02-15 21:00:00 10.3 5 Sudeste 16 Este 0 -- -- 66
2021-02-15 20:00:00 10.4 2 Este 12 Sudeste 0 -- -- 65
2021-02-15 19:00:00 10.5 2 Norte 13 Este 0 -- -- 64
2021-02-15 18:00:00 10.9 6 Este 21 Sudeste 0 -- -- 63
2021-02-15 17:00:00 11.6 5 Sudeste 17 Este 0 -- -- 63
2021-02-15 16:00:00 12.3 5 Sudeste 19 Sudeste 0 -- -- 59
2021-02-15 15:00:00 12.7 7 Este 20 Sudeste 0 -- -- 60
2021-02-15 14:00:00 12.7 5 Sur 15 Sudeste 0 -- -- 60
2021-02-15 13:00:00 12.5 5 Sudoeste 18 Sudeste 0 -- -- 60
2021-02-15 12:00:00 11.6 3 Oeste 18 Sudoeste 0 -- -- 61
2021-02-15 11:00:00 10.7 6 Oeste 18 Oeste 0 -- -- 64
2021-02-15 10:00:00 10.2 5 Oeste 19 Oeste 0 -- -- 66
2021-02-15 09:00:00 9.5 2 Este 14 Oeste 0 -- -- 65
2021-02-15 08:00:00 8.6 2 Sudoeste 9 Sudoeste 0 -- -- 74
2021-02-15 07:00:00 7.3 2 Nordeste 4 Sudeste 0 -- -- 87
2021-02-15 06:00:00 6.9 0 Calma 3 Nordeste 0 -- -- 88
2021-02-15 05:00:00 6.2 0 Calma 2 Oeste 0 -- -- 91
2021-02-15 04:00:00 5.4 0 Calma 4 Sudoeste 0 -- -- 91
2021-02-15 03:00:00 6.1 3 Oeste 4 Oeste 0 -- -- 91
2021-02-15 02:00:00 6.1 0 Calma 2 Nordeste 0 -- -- 91
2021-02-15 01:00:00 5.6 0 Calma 2 Norte 0 -- -- 90
2021-02-15 00:00:00 6 0 Calma 2 Nordeste 0 -- -- 88
2021-02-14 23:00:00 6.9 0 Calma 2 Norte 0 -- -- 85
2021-02-14 22:00:00 7.4 0 Calma 3 Nordeste 0 -- -- 82
2021-02-14 21:00:00 8.3 0 Calma 10 Sudeste 0 -- -- 73
2021-02-14 20:00:00 8.8 0 Calma 8 Este 0 -- -- 74
2021-02-14 19:00:00 9.3 0 Calma 12 Este 0 -- -- 70
2021-02-14 18:00:00 9.8 4 Este 16 Este 0 -- -- 67
2021-02-14 17:00:00 10.3 8 Este 19 Este 0 -- -- 66
2021-02-14 16:00:00 10.8 9 Este 19 Este 0 -- -- 62
2021-02-14 15:00:00 11 6 Este 26 Nordeste 0 -- -- 65
2021-02-14 14:00:00 10.9 10 Nordeste 24 Este 0 -- -- 68
2021-02-14 13:00:00 11.4 7 Este 18 Este 0 -- -- 67
2021-02-14 12:00:00 11.1 6 Este 17 Este 0 -- -- 70
2021-02-14 11:00:00 11.3 3 Este 12 Este 0 -- -- 73
2021-02-14 10:00:00 11.5 4 Este 11 Nordeste 0 -- -- 73
2021-02-14 09:00:00 11.2 4 Nordeste 14 Este 0 -- -- 74
2021-02-14 08:00:00 11 4 Este 13 Nordeste 0 -- -- 76
2021-02-14 07:00:00 11.1 4 Nordeste 14 Este 0 -- -- 79
2021-02-14 06:00:00 10.8 3 Nordeste 9 Este 0 -- -- 91
2021-02-14 05:00:00 10.8 4 Este 11 Este 0 -- -- 96
2021-02-14 04:00:00 11.4 0 Calma 4 Oeste 0 -- -- 96
2021-02-14 03:00:00 11.4 0 Calma 13 Este 0 -- -- 95
2021-02-14 02:00:00 11.6 0 Calma 4 Nordeste 0 -- -- 94
2021-02-14 01:00:00 11.3 0 Calma 3 Nordeste 0 -- -- 95
2021-02-14 00:00:00 11.5 0 Calma 4 Oeste 0 -- -- 93
2021-02-13 23:00:00 11.7 0 Calma 4 Sudoeste 0 -- -- 92
2021-02-13 22:00:00 11.5 3 Sudoeste 4 Sudoeste 0 -- -- 93
2021-02-13 21:00:00 11.6 0 Calma 3 Oeste 0 -- -- 93
2021-02-13 20:00:00 11.4 0 Calma 2 Noroeste 0 -- -- 93
2021-02-13 19:00:00 11.1 0 Calma 3 Sudeste 0 -- -- 91
2021-02-13 18:00:00 12.2 0 Calma 7 Nordeste 0 -- -- 86
2021-02-13 17:00:00 13.5 2 Este 10 Este 0 -- -- 80
2021-02-13 16:00:00 15.2 3 Este 11 Nordeste 0 -- -- 72
2021-02-13 15:00:00 13.8 4 Este 10 Este 0 -- -- 76
2021-02-13 14:00:00 14.1 6 Este 13 Sudeste 0 -- -- 74
2021-02-13 13:00:00 14.4 4 Este 12 Sudeste 0 -- -- 74
2021-02-13 08:00:00 -- -- -- -- -- -- -- -- --
2021-02-13 07:00:00 10.8 2 Norte 9 Norte 0 -- -- 99
2021-02-13 06:00:00 10.6 0 Calma 4 Sur 0 -- -- 97
2021-02-13 05:00:00 11.3 0 Calma 5 Oeste 0 -- -- 97
2021-02-13 04:00:00 11.3 0 Calma 5 Noroeste 0 -- -- 96
2021-02-13 03:00:00 11.5 2 Norte 8 Sudoeste 0 -- -- 95
2021-02-13 02:00:00 11.3 3 Sudoeste 15 Sudoeste 0 -- -- 94
2021-02-13 01:00:00 11.5 4 Oeste 12 Sudoeste 0 -- -- 95
2021-02-13 00:00:00 11.9 4 Este 19 Oeste 0.4 -- -- 92
2021-02-12 23:00:00 12.5 2 Norte 41 Oeste 2 -- -- 92
2021-02-12 22:00:00 12.5 16 Oeste 50 Oeste 2 -- -- 90
2021-02-12 21:00:00 14.3 18 Oeste 41 Oeste 0.2 -- -- 76
2021-02-12 20:00:00 15 21 Oeste 39 Oeste 0 -- -- 68
2021-02-12 19:00:00 14.8 12 Oeste 33 Oeste 0.8 -- -- 68
2021-02-12 18:00:00 15.5 17 Oeste 51 Oeste 0 -- -- 72
2021-02-12 17:00:00 17 16 Oeste 39 Oeste 0 -- -- 64
2021-02-12 16:00:00 17.3 2 Norte 12 Este 0 -- -- 77
2021-02-12 15:00:00 16.5 4 Sudeste 12 Sur 0 -- -- 84
2021-02-12 14:00:00 17.3 0 Calma 5 Norte 0 -- -- 79
2021-02-12 13:00:00 17.4 2 Este 8 Nordeste 0 -- -- 80
2021-02-12 12:00:00 16.8 2 Nordeste 9 Norte 0 -- -- 80
2021-02-12 11:00:00 16 3 Norte 7 Norte 0 -- -- 79
2021-02-12 10:00:00 12.6 0 Calma 6 Oeste 0 -- -- 90
2021-02-12 09:00:00 10.9 2 Sudoeste 7 Noroeste 0 -- -- 93
2021-02-12 08:00:00 9.4 2 Oeste 6 Oeste 0 -- -- 94
2021-02-12 07:00:00 8.5 0 Calma 4 Noroeste 0 -- -- 95
2021-02-12 06:00:00 7.7 0 Calma 2 Nordeste 0 -- -- 96
2021-02-12 05:00:00 7.1 0 Calma 3 Sudoeste 0 -- -- 96
2021-02-12 04:00:00 7 0 Calma 4 Sudoeste 0 -- -- 96
2021-02-12 03:00:00 7 2 Nordeste 4 Nordeste 0 -- -- 95
2021-02-12 02:00:00 7.3 0 Calma 3 Oeste 0 -- -- 94
2021-02-12 01:00:00 7.5 0 Calma 4 Nordeste 0 -- -- 92
2021-02-12 00:00:00 8.3 0 Calma 3 Norte 0 -- -- 91
2021-02-11 23:00:00 8.4 0 Calma 2 Nordeste 0 -- -- 89
2021-02-11 22:00:00 9.1 0 Calma 3 Oeste 0 -- -- 86
2021-02-11 21:00:00 9.8 2 Norte 4 Norte 0 -- -- 85
2021-02-11 20:00:00 10.4 0 Calma 4 Sudoeste 0 -- -- 83
2021-02-11 19:00:00 12.1 0 Calma 4 Sudeste 0 -- -- 78
2021-02-11 18:00:00 15 4 Este 12 Sudeste 0 -- -- 66
2021-02-11 17:00:00 17.4 5 Sur 13 Este 0 -- -- 51
2021-02-11 16:00:00 19.6 5 Sudeste 19 Sur 0 -- -- 44
2021-02-11 15:00:00 23.3 4 Oeste 21 Oeste 0 -- -- 26
2021-02-11 14:00:00 21 10 Oeste 28 Oeste 0 -- -- 31
2021-02-11 13:00:00 20 11 Oeste 23 Oeste 0 -- -- 31
2021-02-11 12:00:00 18.7 4 Nordeste 12 Nordeste 0 -- -- 49
2021-02-11 11:00:00 17.6 3 Norte 9 Norte 0 -- -- 53
2021-02-11 10:00:00 15.5 4 Sudoeste 10 Sudeste 0 -- -- 54
2021-02-11 09:00:00 8.3 2 Oeste 6 Sur 0 -- -- 80
2021-02-11 08:00:00 4.7 0 Calma 8 Sudeste 0 -- -- 89
2021-02-11 07:00:00 4.9 3 Nordeste 12 Sudeste 0 -- -- 90
2021-02-11 06:00:00 5.7 0 Calma 3 Noroeste 0 -- -- 85
2021-02-11 05:00:00 7.2 0 Calma 13 Sudeste 0 -- -- 77
2021-02-11 04:00:00 8.2 0 Calma 10 Sudeste 0 -- -- 72
2021-02-11 03:00:00 9.6 3 Noroeste 13 Oeste 0 -- -- 66
2021-02-11 02:00:00 11.3 7 Oeste 15 Sudoeste 0 -- -- 58
2021-02-11 01:00:00 9 3 Este 14 Sudoeste 0 -- -- 70
2021-02-11 00:00:00 11.1 0 Calma 17 Sudoeste 0 -- -- 61
2021-02-10 23:00:00 12.8 5 Oeste 24 Sudoeste 0 -- -- 56
2021-02-10 22:00:00 11.7 5 Sudoeste 15 Oeste 0 -- -- 60
2021-02-10 21:00:00 13.1 7 Oeste 25 Oeste 0 -- -- 57
2021-02-10 20:00:00 13.1 15 Oeste 33 Sudoeste 0 -- -- 60
2021-02-10 19:00:00 13.1 17 Oeste 43 Noroeste 0 -- -- 59
2021-02-10 18:00:00 13.1 22 Oeste 51 Noroeste 0 -- -- 63
2021-02-10 17:00:00 13.8 26 Noroeste 57 Noroeste 0 -- -- 60
2021-02-10 16:00:00 14.6 24 Oeste 48 Noroeste 0 -- -- 56
2021-02-10 15:00:00 15.5 28 Oeste 52 Oeste 0 -- -- 53
2021-02-10 14:00:00 14.8 20 Oeste 44 Oeste 0 -- -- 63
2021-02-10 13:00:00 14.1 18 Oeste 57 Oeste 0 -- -- 63
2021-02-10 12:00:00 16.2 31 Oeste 60 Oeste 0.6 -- -- 55
2021-02-10 11:00:00 14.4 21 Oeste 65 Sudoeste 0 -- -- 62
2021-02-10 10:00:00 18.1 31 Sudoeste 55 Sudoeste 0 -- -- 39
2021-02-10 09:00:00 16.2 30 Oeste 66 Noroeste 0 -- -- 46
2021-02-10 08:00:00 15.3 17 Oeste 47 Sudoeste 0 -- -- 48
2021-02-10 07:00:00 15.4 17 Oeste 52 Oeste 0 -- -- 47
2021-02-10 06:00:00 15.8 20 Oeste 64 Oeste 0 -- -- 46
2021-02-10 05:00:00 16.5 21 Oeste 51 Oeste 0 -- -- 42
2021-02-10 04:00:00 16.9 22 Oeste 64 Oeste 0 -- -- 46
2021-02-10 03:00:00 17.4 28 Oeste 61 Oeste 0 -- -- 46
2021-02-10 02:00:00 17.1 21 Oeste 50 Sudoeste 0 -- -- 53
2021-02-10 01:00:00 17.5 20 Oeste 43 Oeste 0 -- -- 50
2021-02-10 00:00:00 18.1 18 Oeste 50 Sudoeste 0 -- -- 45
2021-02-09 23:00:00 15.9 6 Noroeste 37 Sur 0 -- -- 61
2021-02-09 22:00:00 15.2 18 Sur 42 Sudoeste 0 -- -- 67
2021-02-09 21:00:00 14.9 16 Sur 50 Sudoeste 0 -- -- 59
2021-02-09 20:00:00 14.5 18 Sur 33 Oeste 0 -- -- 59
2021-02-09 19:00:00 14.5 12 Sur 36 Sur 0 -- -- 65
2021-02-09 18:00:00 15 15 Sur 51 Sudoeste 0 -- -- 55
2021-02-09 17:00:00 15.4 15 Sudoeste 35 Sudoeste 0 -- -- 50
2021-02-09 16:00:00 15.9 11 Sudoeste 26 Sur 0 -- -- 51
2021-02-09 15:00:00 17.7 6 Sudoeste 39 Oeste 0 -- -- 40
2021-02-09 14:00:00 17.6 19 Oeste 39 Oeste 0 -- -- 42
2021-02-09 13:00:00 17.1 15 Oeste 41 Oeste 0 -- -- 45
2021-02-09 12:00:00 17.2 6 Sudoeste 24 Oeste 0 -- -- 50
2021-02-09 11:00:00 16.3 7 Sudoeste 19 Sudoeste 0 -- -- 52
2021-02-09 10:00:00 15.3 9 Sudoeste 20 Sudoeste 0 -- -- 54
2021-02-09 09:00:00 13.7 4 Sudoeste 19 Oeste 0 -- -- 62
2021-02-09 08:00:00 12.9 13 Oeste 30 Oeste 0 -- -- 65
2021-02-09 07:00:00 12.3 5 Oeste 26 Oeste 0 -- -- 69
2021-02-09 06:00:00 12.9 8 Oeste 24 Oeste 0 -- -- 68
2021-02-09 05:00:00 12.3 5 Oeste 15 Sudoeste 0 -- -- 66
2021-02-09 04:00:00 13.2 9 Sudoeste 26 Oeste 0 -- -- 64
2021-02-09 03:00:00 13.2 7 Sudoeste 32 Sudoeste 0 -- -- 62
2021-02-09 02:00:00 13.8 14 Sudoeste 30 Sudoeste 0 -- -- 61
2021-02-09 01:00:00 14.3 7 Oeste 40 Oeste 0 -- -- 52
2021-02-09 00:00:00 14.9 20 Oeste 38 Oeste 0 -- -- 57
2021-02-08 23:00:00 14.1 12 Oeste 32 Oeste 0 -- -- 63
2021-02-08 22:00:00 14.4 21 Oeste 43 Oeste 0 -- -- 60
2021-02-08 21:00:00 14.6 18 Oeste 53 Oeste 0 -- -- 55
2021-02-08 20:00:00 15.1 14 Oeste 38 Sudoeste 0 -- -- 52
2021-02-08 19:00:00 15.2 16 Sudoeste 36 Sudoeste 0 -- -- 52
2021-02-08 18:00:00 15.1 9 Sudoeste 37 Oeste 0 -- -- 56
2021-02-08 17:00:00 16.5 12 Oeste 41 Sudoeste 0 -- -- 50
2021-02-08 16:00:00 16.5 9 Oeste 48 Oeste 0 -- -- 51
2021-02-08 15:00:00 16 9 Sur 33 Sur 0 -- -- 63
2021-02-08 14:00:00 17.1 23 Sur 45 Sur 0 -- -- 56
2021-02-08 13:00:00 15.8 15 Sudoeste 33 Oeste 0 -- -- 57
2021-02-08 12:00:00 15.8 14 Sudoeste 45 Sudoeste 0 -- -- 58
2021-02-08 11:00:00 16.3 23 Oeste 53 Oeste 0 -- -- 54
2021-02-08 10:00:00 13.6 2 Oeste 5 Este 0 -- -- 69
2021-02-08 09:00:00 8.5 0 Calma 4 Sudoeste 0 -- -- 91
2021-02-08 08:00:00 6.7 0 Calma 6 Noroeste 0 -- -- 92
2021-02-08 07:00:00 7.3 0 Calma 6 Sudeste 0 -- -- 87
2021-02-08 06:00:00 8.3 3 Nordeste 13 Norte 0 -- -- 81
2021-02-08 05:00:00 6.8 0 Calma 4 Norte 0 -- -- 84
2021-02-08 04:00:00 6.3 0 Calma 4 Nordeste 0 -- -- 85
2021-02-08 03:00:00 5.3 0 Calma 4 Sur 0 -- -- 88
2021-02-08 02:00:00 5 0 Calma 4 Noroeste 0 -- -- 88
2021-02-08 01:00:00 5 0 Calma 3 Sur 0 -- -- 89
2021-02-08 00:00:00 5.8 0 Calma 6 Norte 0 -- -- 82
2021-02-07 23:00:00 7 2 Nordeste 9 Norte 0 -- -- 78
2021-02-07 22:00:00 6.7 3 Nordeste 12 Sudoeste 0 -- -- 80
2021-02-07 21:00:00 6.5 0 Calma 3 Nordeste 0 -- -- 82
2021-02-07 20:00:00 7.8 0 Calma 9 Sudoeste 0 -- -- 76
2021-02-07 19:00:00 9.6 5 Sudoeste 10 Sudoeste 0 -- -- 68
2021-02-07 18:00:00 11 3 Noroeste 16 Noroeste 0 -- -- 62
2021-02-07 17:00:00 12.4 8 Oeste 28 Oeste 0 -- -- 59
2021-02-07 16:00:00 14.1 12 Oeste 32 Oeste 0 -- -- 46
2021-02-07 15:00:00 13.4 12 Oeste 25 Oeste 0 -- -- 59
2021-02-07 14:00:00 12.8 14 Oeste 32 Sudoeste 0 -- -- 61
2021-02-07 13:00:00 12.3 9 Oeste 32 Oeste 0 -- -- 68
2021-02-07 12:00:00 12.5 16 Oeste 36 Oeste 0 -- -- 65
2021-02-07 11:00:00 12.8 18 Noroeste 40 Noroeste 0 -- -- 65
2021-02-07 10:00:00 14 11 Oeste 42 Oeste 0 -- -- 65
2021-02-07 09:00:00 12.5 12 Oeste 32 Oeste 0 -- -- 72
2021-02-07 08:00:00 12 15 Oeste 28 Oeste 0 -- -- 77
2021-02-07 07:00:00 12.1 12 Oeste 25 Noroeste 0 -- -- 79
2021-02-07 06:00:00 11.8 6 Oeste 20 Noroeste 0 -- -- 84
2021-02-07 05:00:00 9.6 0 Calma 3 Norte 0 -- -- 94
2021-02-07 04:00:00 9.5 0 Calma 3 Nordeste 0 -- -- 95
2021-02-07 03:00:00 8.3 0 Calma 5 Sur 0 -- -- 94
2021-02-07 02:00:00 8.9 4 Norte 9 Nordeste 0 -- -- 94
2021-02-07 01:00:00 9.4 2 Noroeste 6 Norte 0 -- -- 93
2021-02-07 00:00:00 9.8 0 Calma 9 Oeste 0 -- -- 93
2021-02-06 23:00:00 12 2 Norte 27 Sudoeste 0 -- -- 87
2021-02-06 22:00:00 11 4 Norte 12 Nordeste 0 -- -- 93
2021-02-06 21:00:00 10.9 0 Calma 6 Oeste 0 -- -- 93
2021-02-06 20:00:00 11.7 0 Calma 4 Sudeste 0 -- -- 90
2021-02-06 19:00:00 13.9 2 Este 16 Sur 0 -- -- 81
2021-02-06 18:00:00 16.1 6 Sur 15 Sur 0 -- -- 74
2021-02-06 17:00:00 18.2 5 Sur 17 Sudeste 0 -- -- 66
2021-02-06 16:00:00 19.6 7 Sudeste 18 Sudeste 0 -- -- 61
2021-02-06 15:00:00 20 7 Oeste 18 Oeste 0 -- -- 60
2021-02-06 14:00:00 20.4 8 Sudoeste 15 Sudoeste 0 -- -- 59
2021-02-06 13:00:00 19.6 6 Oeste 17 Sur 0 -- -- 62
2021-02-06 12:00:00 18.5 9 Sudoeste 28 Sudoeste 0 -- -- 69
2021-02-06 11:00:00 17.9 14 Sudoeste 26 Sudeste 0 -- -- 72
2021-02-06 10:00:00 18 10 Sudeste 28 Este 0 -- -- 66
2021-02-06 09:00:00 18 8 Sur 24 Sudeste 0 -- -- 58
2021-02-06 08:00:00 17.6 12 Sudoeste 29 Sudoeste 0 -- -- 61
2021-02-06 07:00:00 19.1 10 Sur 30 Oeste 0 -- -- 47
2021-02-06 06:00:00 20.3 18 Sur 46 Sudoeste 0 -- -- 41
2021-02-06 05:00:00 21.7 21 Sudoeste 47 Sur 0 -- -- 31
2021-02-06 04:00:00 21.9 13 Sudoeste 37 Sudoeste 0 -- -- 29
2021-02-06 03:00:00 20.4 12 Sudoeste 30 Sur 0 -- -- 34
2021-02-06 02:00:00 14.5 3 Sudeste 8 Oeste 0 -- -- 85
2021-02-06 01:00:00 14.7 4 Nordeste 13 Norte 0 -- -- 83
2021-02-06 00:00:00 13.8 3 Nordeste 8 Sur 0 -- -- 86
2021-02-05 23:00:00 13 0 Calma 6 Este 0 -- -- 87
2021-02-05 22:00:00 12.6 0 Calma 7 Sur 0 -- -- 82
2021-02-05 21:00:00 12.7 0 Calma 7 Sur 0 -- -- 79
2021-02-05 20:00:00 12.9 0 Calma 9 Sudeste 0 -- -- 79
2021-02-05 19:00:00 13.9 0 Calma 6 Sudeste 0 -- -- 83
2021-02-05 18:00:00 16 0 Calma 10 Este 0 -- -- 76
2021-02-05 17:00:00 17.6 3 Este 20 Sudeste 0 -- -- 70
2021-02-05 16:00:00 22 8 Sudeste 18 Sudeste 0 -- -- 52
2021-02-05 15:00:00 26.1 6 Sudoeste 24 Sudoeste 0 -- -- 32
2021-02-05 14:00:00 24 15 Sudoeste 28 Sudoeste 0 -- -- 36
2021-02-05 13:00:00 23.4 10 Sudoeste 19 Sudoeste 0 -- -- 40
2021-02-05 12:00:00 18.6 5 Norte 8 Nordeste 0 -- -- 73
2021-02-05 11:00:00 15.6 0 Calma 5 Sudeste 0 -- -- 92
2021-02-05 10:00:00 13.1 0 Calma 5 Norte 0 -- -- 97
2021-02-05 09:00:00 10.9 0 Calma 5 Oeste 0 -- -- 100
2021-02-05 08:00:00 10.6 0 Calma 4 Sudoeste 0 -- -- 100
2021-02-05 07:00:00 10.3 2 Nordeste 7 Sudoeste 0 -- -- 100
2021-02-05 06:00:00 10.4 2 Oeste 6 Noroeste 0 -- -- 100
2021-02-05 05:00:00 10.3 3 Sur 7 Noroeste 0 -- -- 100
2021-02-05 04:00:00 9.9 3 Noroeste 6 Norte 0 -- -- 99
2021-02-05 03:00:00 8 0 Calma 3 Sudeste 0 -- -- 99
2021-02-05 02:00:00 8.4 0 Calma 3 Oeste 0 -- -- 98
2021-02-05 01:00:00 9.3 0 Calma 3 Norte 0 -- -- 98
2021-02-05 00:00:00 10.7 0 Calma 8 Norte 0 -- -- 98
2021-02-04 23:00:00 10.4 0 Calma 5 Oeste 0 -- -- 97
2021-02-04 22:00:00 10.2 4 Noroeste 7 Noroeste 0 -- -- 97
2021-02-04 21:00:00 10 0 Calma 7 Sudoeste 0 -- -- 97
2021-02-04 20:00:00 10.3 0 Calma 2 Nordeste 0 -- -- 96
2021-02-04 19:00:00 10.9 0 Calma 5 Sudeste 0 -- -- 93
2021-02-04 18:00:00 13.3 3 Sudeste 8 Sudeste 0 -- -- 89
2021-02-04 17:00:00 14.9 3 Este 12 Nordeste 0 -- -- 83
2021-02-04 16:00:00 15.5 5 Nordeste 13 Este 0 -- -- 80
2021-02-04 15:00:00 18.6 4 Sudeste 14 Nordeste 0 -- -- 69
2021-02-04 14:00:00 17.7 6 Nordeste 14 Nordeste 0 -- -- 70
2021-02-04 13:00:00 15.8 3 Oeste 8 Este 0 -- -- 81
2021-02-04 12:00:00 13.1 4 Este 8 Nordeste 0 -- -- 96
2021-02-04 11:00:00 10.6 2 Sur 4 Sur 0 -- -- 99
2021-02-04 10:00:00 9.3 0 Calma 6 Este 0 -- -- 99
2021-02-04 09:00:00 8.7 0 Calma 4 Sudoeste 0 -- -- 99
2021-02-04 08:00:00 8.3 0 Calma 5 Nordeste 0 -- -- 99
2021-02-04 07:00:00 8.7 2 Norte 4 Norte 0 -- -- 99
2021-02-04 06:00:00 8.2 0 Calma 4 Norte 0 -- -- 99
2021-02-04 05:00:00 8.7 2 Sudeste 5 Sudeste 0 -- -- 99
2021-02-04 04:00:00 9.7 0 Calma 5 Norte 0 -- -- 98
2021-02-04 03:00:00 9.1 0 Calma 4 Sur 0 -- -- 99
2021-02-04 02:00:00 8.5 0 Calma 3 Norte 0 -- -- 98
2021-02-04 01:00:00 8.8 0 Calma 3 Oeste 0 -- -- 98
2021-02-04 00:00:00 9.5 0 Calma 3 Norte 0 -- -- 97
2021-02-03 23:00:00 9.6 0 Calma 4 Oeste 0 -- -- 96
2021-02-03 22:00:00 9.9 0 Calma 4 Este 0 -- -- 96
2021-02-03 21:00:00 10.5 0 Calma 4 Sudeste 0 -- -- 95
2021-02-03 20:00:00 11.3 0 Calma 4 Noroeste 0 -- -- 93
2021-02-03 19:00:00 12.3 0 Calma 3 Sur 0 -- -- 90
2021-02-03 18:00:00 14.2 2 Este 8 Sudeste 0 -- -- 83
2021-02-03 17:00:00 16.9 4 Sudeste 12 Este 0 -- -- 72
2021-02-03 16:00:00 18.7 5 Este 13 Sudeste 0 -- -- 65
2021-02-03 15:00:00 19.8 6 Sudeste 12 Este 0 -- -- 63
2021-02-03 14:00:00 19.1 3 Nordeste 7 Sur 0 -- -- 65
2021-02-03 13:00:00 17.8 4 Sur 8 Sur 0 -- -- 70
2021-02-03 12:00:00 15.7 0 Calma 5 Sudoeste 0 -- -- 79
2021-02-03 11:00:00 13.4 0 Calma 5 Sudoeste 0 -- -- 93
2021-02-03 10:00:00 10.7 0 Calma 9 Nordeste 0 -- -- 97
2021-02-03 09:00:00 8.2 0 Calma 3 Norte 0 -- -- 98
2021-02-03 08:00:00 6.6 0 Calma 3 Norte 0 -- -- 98
2021-02-03 07:00:00 6.6 0 Calma 3 Norte 0 -- -- 98
2021-02-03 06:00:00 6.8 0 Calma 4 Nordeste 0 -- -- 98
2021-02-03 05:00:00 7.1 0 Calma 3 Nordeste 0 -- -- 97
2021-02-03 04:00:00 7.4 0 Calma 3 Oeste 0 -- -- 97
2021-02-03 03:00:00 7.6 0 Calma 3 Oeste 0 -- -- 96
2021-02-03 02:00:00 8.4 2 Norte 4 Norte 0 -- -- 96
2021-02-03 01:00:00 8.3 0 Calma 3 Sur 0 -- -- 94
2021-02-03 00:00:00 9.1 2 Oeste 4 Nordeste 0 -- -- 92
2021-02-02 23:00:00 9.3 0 Calma 4 Oeste 0 -- -- 91
2021-02-02 22:00:00 10.4 3 Norte 7 Nordeste 0 -- -- 87
2021-02-02 21:00:00 11.5 3 Sudeste 5 Norte 0 -- -- 85
2021-02-02 20:00:00 12.3 0 Calma 4 Norte 0 -- -- 79
2021-02-02 19:00:00 14.6 2 Norte 14 Oeste 0 -- -- 70
2021-02-02 18:00:00 17.1 5 Sudeste 20 Sudoeste 0 -- -- 61
2021-02-02 17:00:00 19.7 9 Sudoeste 22 Oeste 0 -- -- 47
2021-02-02 16:00:00 21.3 11 Oeste 24 Oeste 0 -- -- 42
2021-02-02 15:00:00 22.1 15 Oeste 28 Sudoeste 0 -- -- 41
2021-02-02 14:00:00 21.7 14 Oeste 23 Oeste 0 -- -- 41
2021-02-02 13:00:00 21.4 10 Noroeste 25 Oeste 0 -- -- 43
2021-02-02 12:00:00 21.2 5 Sur 15 Sudeste 0 -- -- 47
2021-02-02 11:00:00 19.6 5 Este 11 Sudeste 0 -- -- 56
2021-02-02 10:00:00 18.1 5 Sudeste 18 Sudeste 0 -- -- 57
2021-02-02 09:00:00 15.5 5 Sudoeste 16 Oeste 0 -- -- 58
2021-02-02 08:00:00 14.2 4 Oeste 26 Sudoeste 0 -- -- 62
2021-02-02 07:00:00 17.2 6 Oeste 28 Sudoeste 0 -- -- 50
2021-02-02 06:00:00 16.7 9 Oeste 21 Oeste 0 -- -- 53
2021-02-02 05:00:00 16 3 Sudoeste 23 Oeste 0 -- -- 55
2021-02-02 04:00:00 17.2 8 Oeste 20 Oeste 0 -- -- 50
2021-02-02 03:00:00 17 4 Sudoeste 36 Oeste 0 -- -- 52
2021-02-02 02:00:00 18.6 22 Oeste 47 Oeste 0 -- -- 47
2021-02-02 01:00:00 18.4 21 Oeste 46 Oeste 0 -- -- 48
2021-02-02 00:00:00 18.9 22 Oeste 56 Oeste 0 -- -- 45
2021-02-01 23:00:00 18.8 21 Oeste 49 Oeste 0 -- -- 46
2021-02-01 22:00:00 18.8 23 Oeste 56 Oeste 0 -- -- 46
2021-02-01 21:00:00 18.7 30 Oeste 56 Oeste 0 -- -- 46
2021-02-01 20:00:00 18.5 28 Oeste 68 Oeste 0 -- -- 46
2021-02-01 19:00:00 18.3 28 Oeste 64 Oeste 0 -- -- 44
2021-02-01 18:00:00 17.9 30 Oeste 67 Oeste 0 -- -- 44
2021-02-01 17:00:00 17.6 30 Oeste 62 Oeste 0 -- -- 45
2021-02-01 16:00:00 18.2 33 Oeste 68 Oeste 0 -- -- 42
2021-02-01 15:00:00 18.2 32 Oeste 64 Oeste 0 -- -- 44
2021-02-01 14:00:00 18.2 30 Oeste 62 Oeste 0 -- -- 44
2021-02-01 13:00:00 18.2 29 Oeste 72 Oeste 0 -- -- 44
2021-02-01 12:00:00 18 35 Oeste 69 Oeste 0 -- -- 44
2021-02-01 11:00:00 17.9 38 Oeste 72 Oeste 0 -- -- 44
2021-02-01 10:00:00 17.9 36 Oeste 75 Oeste 0 -- -- 43
2021-02-01 09:00:00 17.5 38 Oeste 78 Oeste 0 -- -- 45
2021-02-01 08:00:00 17.6 36 Oeste 69 Oeste 0 -- -- 45
2021-02-01 07:00:00 18.1 33 Oeste 66 Oeste 0 -- -- 43
2021-02-01 06:00:00 18.1 31 Oeste 64 Oeste 0 -- -- 45
2021-02-01 05:00:00 18.4 26 Oeste 56 Oeste 0 -- -- 43
2021-02-01 04:00:00 19.1 28 Oeste 62 Oeste 0 -- -- 41
2021-02-01 03:00:00 19.1 23 Oeste 52 Oeste 0 -- -- 46
2021-02-01 02:00:00 17.6 9 Oeste 45 Oeste 0 -- -- 52
2021-02-01 01:00:00 18.7 24 Oeste 45 Oeste 0 -- -- 47
2021-02-01 00:00:00 18.8 20 Oeste 45 Oeste 0 -- -- 47
2021-01-31 23:00:00 18.6 17 Oeste 37 Noroeste 0 -- -- 47
2021-01-31 22:00:00 17.7 13 Oeste 39 Oeste 0 -- -- 51
2021-01-31 21:00:00 18 18 Oeste 45 Noroeste 0 -- -- 47
2021-01-31 20:00:00 17.1 12 Oeste 28 Noroeste 0 -- -- 46
2021-01-31 19:00:00 15.3 3 Sudoeste 23 Sudoeste 0 -- -- 47
2021-01-31 18:00:00 15.6 9 Oeste 40 Oeste 0 -- -- 45
2021-01-31 17:00:00 16.4 21 Oeste 46 Oeste 0 -- -- 43
2021-01-31 16:00:00 17.2 29 Oeste 59 Oeste 0 -- -- 40
2021-01-31 15:00:00 17.1 27 Oeste 64 Oeste 0 -- -- 45
2021-01-31 14:00:00 16.3 27 Oeste 58 Oeste 0 -- -- 49
2021-01-31 13:00:00 16.5 27 Oeste 79 Oeste 0 -- -- 45
2021-01-31 12:00:00 16 29 Oeste 78 Oeste 0 -- -- 49
2021-01-31 11:00:00 16 32 Oeste 69 Oeste 0 -- -- 47
2021-01-31 10:00:00 15.8 25 Oeste 63 Oeste 0 -- -- 49
2021-01-31 09:00:00 14.9 28 Oeste 68 Oeste 0 -- -- 51
2021-01-31 08:00:00 14.5 28 Oeste 60 Oeste 0 -- -- 48
2021-01-31 07:00:00 14.7 31 Oeste 62 Oeste 0 -- -- 45
2021-01-31 06:00:00 14.3 26 Oeste 48 Oeste 0 -- -- 49
2021-01-31 05:00:00 13.8 16 Oeste 40 Oeste 0 -- -- 53
2021-01-31 04:00:00 13.6 17 Oeste 46 Oeste 0 -- -- 60
2021-01-31 03:00:00 13.8 24 Oeste 49 Oeste 0 -- -- 55
2021-01-31 02:00:00 13.9 21 Oeste 53 Oeste 0 -- -- 55
2021-01-31 01:00:00 14.4 24 Oeste 60 Oeste 0 -- -- 53
2021-01-31 00:00:00 14.4 23 Oeste 44 Oeste 0 -- -- 58
2021-01-30 23:00:00 14.9 18 Oeste 40 Oeste 0 -- -- 58
2021-01-30 22:00:00 15.9 19 Oeste 42 Oeste 0 -- -- 50
2021-01-30 21:00:00 16.3 20 Oeste 46 Oeste 0 -- -- 40
2021-01-30 20:00:00 15 14 Oeste 37 Oeste 0 -- -- 51
2021-01-30 19:00:00 16.3 6 Sudoeste 26 Oeste 0 -- -- 49
2021-01-30 18:00:00 16.8 12 Oeste 47 Oeste 0 -- -- 46
2021-01-30 17:00:00 17.9 10 Oeste 34 Oeste 0 -- -- 47
2021-01-30 16:00:00 17.2 20 Oeste 40 Sudoeste 0 -- -- 58
2021-01-30 15:00:00 19.3 21 Oeste 53 Oeste 0 -- -- 53
2021-01-30 14:00:00 19.6 21 Oeste 53 Oeste 0 -- -- 52
2021-01-30 13:00:00 18.3 28 Oeste 55 Oeste 0 -- -- 56
2021-01-30 12:00:00 18.3 28 Oeste 60 Oeste 0 -- -- 57
2021-01-30 11:00:00 17 7 Sudeste 17 Sudeste 0 -- -- 71
2021-01-30 10:00:00 14.1 9 Norte 17 Nordeste 0 -- -- 82
2021-01-30 09:00:00 18.1 9 Sudoeste 36 Oeste 0 -- -- 56
2021-01-30 08:00:00 8.7 3 Sur 10 Sudoeste 0 -- -- 96
2021-01-30 07:00:00 8.6 0 Calma 5 Nordeste 0 -- -- 95
2021-01-30 06:00:00 9.3 0 Calma 14 Sudeste 0 -- -- 92
2021-01-30 05:00:00 9.1 2 Noroeste 6 Oeste 0 -- -- 92
2021-01-30 04:00:00 10 0 Calma 6 Oeste 0 -- -- 91
2021-01-30 03:00:00 10.9 0 Calma 8 Sudeste 0 -- -- 85
2021-01-30 02:00:00 13.3 0 Calma 9 Oeste 0 -- -- 72
2021-01-30 01:00:00 15.1 2 Norte 11 Oeste 0 -- -- 65
2021-01-30 00:00:00 16 6 Oeste 15 Oeste 0 -- -- 60
2021-01-29 23:00:00 14.4 4 Noroeste 12 Oeste 0 -- -- 68
2021-01-29 22:00:00 13.2 2 Norte 6 Norte 0 -- -- 76
2021-01-29 21:00:00 12.9 2 Noroeste 5 Noroeste 0 -- -- 80
2021-01-29 20:00:00 14.2 2 Oeste 5 Oeste 0 -- -- 73
2021-01-29 19:00:00 16.3 4 Sur 9 Sudeste 0 -- -- 65
2021-01-29 18:00:00 19.8 2 Oeste 21 Sudoeste 0 -- -- 49
2021-01-29 17:00:00 20.8 4 Sudoeste 18 Noroeste 0 -- -- 49
2021-01-29 16:00:00 22.2 8 Noroeste 25 Oeste 0 -- -- 44
2021-01-29 15:00:00 22.9 13 Oeste 26 Oeste 0 -- -- 44
2021-01-29 14:00:00 23.4 13 Oeste 31 Oeste 0 -- -- 43
2021-01-29 13:00:00 23 11 Oeste 27 Oeste 0 -- -- 44
2021-01-29 12:00:00 21.8 11 Noroeste 39 Oeste 0 -- -- 48
2021-01-29 11:00:00 23 12 Oeste 30 Oeste 0 -- -- 44
2021-01-29 10:00:00 22.9 14 Oeste 43 Noroeste 0 -- -- 45
2021-01-29 09:00:00 21.1 15 Noroeste 39 Oeste 0 -- -- 49
2021-01-29 08:00:00 19 11 Oeste 23 Oeste 0 -- -- 57
2021-01-29 07:00:00 10.2 2 Norte 8 Oeste 0 -- -- 98
2021-01-29 06:00:00 9 2 Norte 5 Sur 0 -- -- 99
2021-01-29 05:00:00 9.6 2 Sudeste 4 Sudeste 0 -- -- 99
2021-01-29 04:00:00 9.4 0 Calma 3 Norte 0 -- -- 98
2021-01-29 03:00:00 9.8 0 Calma 3 Sur 0 -- -- 98
2021-01-29 02:00:00 9.9 0 Calma 4 Oeste 0 -- -- 98
2021-01-29 01:00:00 10 0 Calma 4 Sudeste 0 -- -- 97
2021-01-29 00:00:00 10.4 0 Calma 4 Oeste 0 -- -- 97
2021-01-28 23:00:00 11 0 Calma 4 Oeste 0 -- -- 97
2021-01-28 22:00:00 11.2 0 Calma 6 Oeste 0 -- -- 96
2021-01-28 21:00:00 11.5 0 Calma 6 Oeste 0 -- -- 95
2021-01-28 20:00:00 12.5 0 Calma 5 Este 0 -- -- 93
2021-01-28 19:00:00 13.6 0 Calma 5 Sudeste 0 -- -- 90
2021-01-28 18:00:00 15.8 3 Sudeste 14 Sudeste 0 -- -- 82
2021-01-28 17:00:00 19.6 7 Sudeste 12 Sudeste 0 -- -- 67
2021-01-28 16:00:00 23.1 5 Sudeste 15 Sudeste 0 -- -- 58
2021-01-28 15:00:00 23.3 6 Sudeste 15 Este 0 -- -- 57
2021-01-28 14:00:00 23.2 4 Este 15 Nordeste 0 -- -- 57
2021-01-28 13:00:00 22.5 7 Nordeste 13 Nordeste 0 -- -- 57
2021-01-28 12:00:00 22.4 5 Nordeste 10 Nordeste 0 -- -- 57
2021-01-28 11:00:00 23.2 4 Sur 13 Oeste 0 -- -- 49
2021-01-28 10:00:00 21.9 6 Sudoeste 15 Sudoeste 0 -- -- 52
2021-01-28 09:00:00 18.2 7 Sudoeste 37 Oeste 0 -- -- 62
2021-01-28 08:00:00 17.8 13 Oeste 35 Sudoeste 0 -- -- 64
2021-01-28 07:00:00 17.7 14 Sudoeste 29 Sudoeste 0 -- -- 64
2021-01-28 06:00:00 17.4 16 Oeste 37 Oeste 0 -- -- 67
2021-01-28 05:00:00 13.3 5 Oeste 23 Oeste 0 -- -- 98
2021-01-28 04:00:00 9.1 3 Este 11 Oeste 0 -- -- 99
2021-01-28 03:00:00 8.8 0 Calma 4 Sur 0 -- -- 98
2021-01-28 02:00:00 8.8 0 Calma 4 Oeste 0 -- -- 98
2021-01-28 01:00:00 8.7 3 Noroeste 6 Oeste 0 -- -- 98
2021-01-28 00:00:00 8.9 0 Calma 2 Norte 0 -- -- 98
2021-01-27 23:00:00 9.2 0 Calma 3 Nordeste 0 -- -- 97
2021-01-27 22:00:00 10 0 Calma 3 Oeste 0 -- -- 95
2021-01-27 21:00:00 10.7 0 Calma 4 Norte 0 -- -- 93
2021-01-27 20:00:00 12.2 0 Calma 10 Este 0 -- -- 89
2021-01-27 19:00:00 14.6 4 Nordeste 11 Oeste 0 -- -- 79
2021-01-27 18:00:00 16.3 5 Oeste 12 Oeste 0 -- -- 72
2021-01-27 17:00:00 17.9 3 Sudoeste 26 Oeste 0 -- -- 67
2021-01-27 16:00:00 19.3 11 Noroeste 30 Noroeste 0 -- -- 59
2021-01-27 15:00:00 19.9 10 Oeste 28 Oeste 0 -- -- 58
2021-01-27 14:00:00 20 10 Oeste 35 Oeste 0 -- -- 57
2021-01-27 13:00:00 18.2 14 Oeste 31 Oeste 0 -- -- 63
2021-01-27 12:00:00 14.9 6 Sudeste 14 Sudeste 0 -- -- 88
2021-01-27 11:00:00 13.2 4 Sudeste 17 Sudeste 0 -- -- 90
2021-01-27 10:00:00 10.9 3 Sur 8 Sur 0 -- -- 93
2021-01-27 09:00:00 9.3 2 Sudoeste 5 Sur 0 -- -- 94
2021-01-27 08:00:00 9.4 2 Norte 7 Norte 0 -- -- 93
2021-01-27 07:00:00 9.3 0 Calma 4 Oeste 0 -- -- 93
2021-01-27 06:00:00 8.9 2 Norte 4 Norte 0 -- -- 93
2021-01-27 05:00:00 8.6 2 Nordeste 3 Nordeste 0 -- -- 94
2021-01-27 04:00:00 8.3 0 Calma 3 Nordeste 0 -- -- 95
2021-01-27 03:00:00 8.1 0 Calma 4 Norte 0 -- -- 96
2021-01-27 02:00:00 6.7 0 Calma 3 Norte 0 -- -- 97
2021-01-27 01:00:00 6.2 0 Calma 2 Norte 0 -- -- 97
2021-01-27 00:00:00 5.4 2 Nordeste 4 Norte 0 -- -- 97
2021-01-26 23:00:00 5.8 2 Norte 3 Norte 0 -- -- 95
2021-01-26 22:00:00 6.2 2 Nordeste 4 Nordeste 0 -- -- 94
2021-01-26 21:00:00 6.8 0 Calma 3 Norte 0 -- -- 92
2021-01-26 20:00:00 7.6 3 Norte 8 Sudoeste 0 -- -- 88
2021-01-26 19:00:00 9.7 0 Calma 17 Sur 0 -- -- 80
2021-01-26 18:00:00 11.1 10 Sudoeste 19 Sur 0 -- -- 75
2021-01-26 17:00:00 12.7 10 Sur 17 Sur 0 -- -- 67
2021-01-26 16:00:00 13.4 5 Sudoeste 19 Sudoeste 0 -- -- 63
2021-01-26 15:00:00 13.4 8 Sur 20 Sudoeste 0 -- -- 64
2021-01-26 14:00:00 13.3 9 Sudoeste 18 Sudoeste 0 -- -- 63
2021-01-26 13:00:00 12 7 Este 18 Sudeste 0 -- -- 69
2021-01-26 12:00:00 12.8 4 Este 13 Nordeste 0 -- -- 66
2021-01-26 11:00:00 12.1 3 Sur 5 Sur 0 -- -- 69
2021-01-26 10:00:00 10.7 0 Calma 6 Oeste 0 -- -- 78
2021-01-26 09:00:00 8.9 3 Sudoeste 10 Oeste 0 -- -- 82
2021-01-26 08:00:00 8.7 0 Calma 6 Sudeste 0 -- -- 80
2021-01-26 07:00:00 10 3 Este 13 Nordeste 0 -- -- 68
2021-01-26 06:00:00 10.2 3 Nordeste 16 Sudeste 0 -- -- 66
2021-01-26 05:00:00 10.3 2 Sudeste 14 Nordeste 0 -- -- 65
2021-01-26 04:00:00 10.4 3 Nordeste 19 Norte 0 -- -- 63
2021-01-26 03:00:00 10.8 4 Este 16 Este 0 -- -- 66
2021-01-26 02:00:00 11 4 Nordeste 20 Nordeste 0 -- -- 67
2021-01-26 01:00:00 10.9 4 Este 16 Este 0 -- -- 68
2021-01-26 00:00:00 10.9 4 Este 21 Este 0 -- -- 73
2021-01-25 23:00:00 10.5 3 Este 18 Este 0.2 -- -- 85
2021-01-25 22:00:00 11.1 4 Este 14 Este 0 -- -- 88
2021-01-25 21:00:00 11.8 8 Norte 23 Noroeste 1 -- -- 91
2021-01-25 20:00:00 12.8 6 Noroeste 32 Noroeste 1.4 -- -- 88
2021-01-25 19:00:00 14.1 15 Oeste 44 Oeste 0.8 -- -- 85
2021-01-25 18:00:00 14.3 19 Oeste 48 Oeste 1.2 -- -- 84
2021-01-25 17:00:00 14.8 15 Oeste 36 Oeste 0.4 -- -- 78
2021-01-25 16:00:00 15.1 12 Oeste 34 Oeste 0.2 -- -- 74
2021-01-25 15:00:00 15.6 19 Sudoeste 45 Sudoeste 0.4 -- -- 70
2021-01-25 14:00:00 15.5 10 Sudoeste 23 Sur 0.4 -- -- 72
2021-01-25 13:00:00 16 2 Sur 21 Sudoeste 0 -- -- 64
2021-01-25 12:00:00 15.2 6 Sudoeste 22 Oeste 0 -- -- 64
2021-01-25 11:00:00 12.9 3 Norte 8 Sudoeste 0.4 -- -- 81
2021-01-25 10:00:00 13.7 0 Calma 15 Sur 0 -- -- 64
2021-01-25 09:00:00 12 0 Calma 9 Sudoeste 0 -- -- 61
2021-01-25 08:00:00 11.7 0 Calma 10 Sudoeste 0 -- -- 60
2021-01-25 07:00:00 11.8 2 Oeste 17 Noroeste 0 -- -- 58
2021-01-25 06:00:00 14.4 9 Oeste 25 Oeste 0 -- -- 45
2021-01-25 05:00:00 14 9 Oeste 28 Oeste 0 -- -- 50
2021-01-25 04:00:00 14.4 10 Oeste 25 Noroeste 0 -- -- 48
2021-01-25 03:00:00 8.6 2 Norte 5 Oeste 0 -- -- 82
2021-01-25 02:00:00 9.4 0 Calma 6 Norte 0 -- -- 76
2021-01-25 01:00:00 12 2 Norte 24 Sur 0 -- -- 66
2021-01-25 00:00:00 11.4 8 Sur 18 Sudoeste 0 -- -- 67